Time;durP1;ratioP1;P1;durP2;ratioP2;P2;SDS_P1;SDS_P2;PMS_P1;PMS_P2;Temp;Humidity;BMP_temperature;BMP_pressure;BME280_temperature;BME280_humidity;BME280_pressure;Samples;Min_cycle;Max_cycle;Signal;HPM_P1;HPM_P2
2022/02/22 00:00:32;;;;;;;6.47;2.10;;;;;;;6.08;67.20;98892.94;2617974;54;20030;-67
2022/02/22 00:03:04;;;;;;;7.07;1.83;;;;;;;6.07;67.84;98895.72;2617293;54;20081;-67
2022/02/22 00:05:34;;;;;;;8.30;1.92;;;;;;;6.01;68.33;98904.25;2617015;54;20592;-68
2022/02/22 00:08:03;;;;;;;8.63;1.88;;;;;;;5.93;68.75;98908.47;2617952;54;20077;-66
2022/02/22 00:10:33;;;;;;;9.82;2.35;;;;;;;5.90;69.32;98908.75;2618191;54;20038;-67
2022/02/22 00:13:05;;;;;;;13.43;2.58;;;;;;;5.84;69.60;98927.78;2618045;54;20027;-67
2022/02/22 00:15:41;;;;;;;10.30;2.80;;;;;;;5.78;69.62;98917.91;2618204;54;20027;-67
2022/02/22 00:18:13;;;;;;;10.52;2.63;;;;;;;5.76;70.18;98927.75;2617986;54;20034;-66
2022/02/22 00:20:43;;;;;;;11.40;2.55;;;;;;;5.73;70.13;98922.81;2617904;54;20045;-66
2022/02/22 00:23:14;;;;;;;9.80;2.38;;;;;;;5.76;70.40;98919.06;2618018;54;20059;-65
2022/02/22 00:25:44;;;;;;;11.77;2.50;;;;;;;5.70;70.43;98920.50;2617957;54;20058;-64
2022/02/22 00:28:14;;;;;;;9.50;2.00;;;;;;;5.65;70.64;98922.78;2618057;54;20026;-65
2022/02/22 00:30:43;;;;;;;12.07;2.22;;;;;;;5.62;70.37;98923.09;2618004;54;20043;-66
2022/02/22 00:33:16;;;;;;;6.72;2.05;;;;;;;5.61;70.75;98924.09;2624302;54;20061;-68
2022/02/22 00:35:45;;;;;;;15.45;2.80;;;;;;;5.53;70.68;98932.72;2619643;54;20039;-65
2022/02/22 00:38:15;;;;;;;12.10;3.60;;;;;;;5.47;70.82;98946.47;2617857;54;20061;-67
2022/02/22 00:40:45;;;;;;;10.77;2.30;;;;;;;5.43;70.95;98940.72;2618195;39;20446;-66
2022/02/22 00:43:14;;;;;;;9.43;2.10;;;;;;;5.42;71.33;98962.66;2617797;54;20572;-67
2022/02/22 00:45:44;;;;;;;10.35;3.00;;;;;;;5.46;71.54;98964.00;2617564;54;20049;-67
2022/02/22 00:48:19;;;;;;;12.43;2.67;;;;;;;5.50;71.45;98963.69;2617878;54;20557;-67
2022/02/22 00:50:48;;;;;;;8.82;2.45;;;;;;;5.54;71.70;98970.25;2617889;54;20030;-65
2022/02/22 00:53:19;;;;;;;7.78;2.45;;;;;;;5.49;71.47;98968.09;2617562;47;20042;-67
2022/02/22 00:55:49;;;;;;;8.38;2.88;;;;;;;5.50;71.51;98971.56;2617571;54;20042;-66
2022/02/22 00:58:18;;;;;;;8.98;2.60;;;;;;;5.51;71.25;98975.81;2617375;54;20026;-67
2022/02/22 01:00:48;;;;;;;12.82;2.38;;;;;;;5.54;71.15;98980.75;2624597;54;20038;-67
2022/02/22 01:03:20;;;;;;;13.32;2.35;;;;;;;5.56;71.02;98990.13;2624262;47;20065;-68
2022/02/22 01:05:50;;;;;;;10.50;2.92;;;;;;;5.59;70.88;98987.19;2621643;54;20034;-67
2022/02/22 01:08:20;;;;;;;8.00;2.22;;;;;;;5.55;70.72;98980.63;2617890;39;20453;-66
2022/02/22 01:10:49;;;;;;;8.32;2.47;;;;;;;5.55;71.14;98985.00;2617875;54;20034;-66
2022/02/22 01:13:20;;;;;;;10.82;2.50;;;;;;;5.56;70.91;99002.41;2618064;54;20034;-67
2022/02/22 01:15:50;;;;;;;14.15;2.55;;;;;;;5.58;70.97;99001.25;2623858;47;20525;-66
2022/02/22 01:18:23;;;;;;;9.75;2.55;;;;;;;5.59;70.68;99004.69;2624621;54;20019;-67
2022/02/22 01:20:53;;;;;;;6.75;2.30;;;;;;;5.56;70.52;99013.72;2625180;54;20035;-67
2022/02/22 01:23:22;;;;;;;11.15;2.53;;;;;;;5.48;70.75;99013.66;2625421;54;20058;-66
2022/02/22 01:25:56;;;;;;;12.88;2.88;;;;;;;5.44;70.32;99015.78;2625471;39;20406;-67
2022/02/22 01:28:25;;;;;;;8.05;2.42;;;;;;;5.42;70.52;99030.81;2623951;54;20038;-65
2022/02/22 01:30:55;;;;;;;10.23;2.17;;;;;;;5.41;70.58;99015.25;2624742;54;20061;-67
2022/02/22 01:33:27;;;;;;;6.50;2.15;;;;;;;5.39;70.66;99027.72;2624160;54;20034;-66
2022/02/22 01:35:56;;;;;;;9.02;2.15;;;;;;;5.38;70.62;99023.44;2623249;54;20041;-67
2022/02/22 01:38:26;;;;;;;11.07;3.10;;;;;;;5.35;70.88;99019.31;2623100;54;20037;-66
2022/02/22 01:40:56;;;;;;;8.57;2.08;;;;;;;5.38;70.56;99026.03;2622192;54;20034;-67
2022/02/22 01:43:26;;;;;;;14.43;2.45;;;;;;;5.33;70.86;99012.59;2621579;39;20414;-67
2022/02/22 01:45:55;;;;;;;12.73;2.55;;;;;;;5.30;70.48;99018.13;2621884;54;20038;-67
2022/02/22 01:48:28;;;;;;;13.00;2.65;;;;;;;5.22;70.95;99018.88;2621779;54;20034;-67
2022/02/22 01:50:57;;;;;;;13.57;2.92;;;;;;;5.19;71.23;99025.28;2623526;54;20043;-67
2022/02/22 01:53:27;;;;;;;12.18;3.20;;;;;;;5.15;71.41;99033.59;2624190;54;20550;-66
2022/02/22 01:55:56;;;;;;;13.80;2.63;;;;;;;5.11;71.24;99029.63;2624265;54;20038;-65
2022/02/22 01:58:26;;;;;;;7.28;2.10;;;;;;;5.08;71.32;99046.47;2623294;54;20049;-66
2022/02/22 02:01:05;;;;;;;11.23;2.90;;;;;;;5.06;71.51;99055.44;2622979;39;20444;-66
2022/02/22 02:03:38;;;;;;;10.15;2.08;;;;;;;5.03;72.08;99058.41;2621731;54;20081;-67
2022/02/22 02:06:07;;;;;;;13.68;2.63;;;;;;;4.98;72.36;99056.22;2622307;54;20038;-67
2022/02/22 02:08:37;;;;;;;9.38;2.00;;;;;;;4.97;72.81;99054.56;2624068;54;20030;-66
2022/02/22 02:11:11;;;;;;;16.13;3.22;;;;;;;4.97;72.92;99060.63;2620897;54;20031;-66
2022/02/22 02:13:41;;;;;;;10.30;2.58;;;;;;;4.97;73.22;99076.34;2619551;54;20034;-67
2022/02/22 02:16:10;;;;;;;7.57;2.35;;;;;;;4.96;73.51;99068.66;2620644;54;20081;-67
2022/02/22 02:18:43;;;;;;;13.32;3.17;;;;;;;4.96;73.64;99066.03;2619599;54;20034;-67
2022/02/22 02:21:14;;;;;;;8.85;2.70;;;;;;;4.94;73.93;99076.66;2619059;54;20034;-66
2022/02/22 02:23:46;;;;;;;11.85;2.92;;;;;;;4.98;74.13;99074.56;2619551;54;20081;-66
2022/02/22 02:26:16;;;;;;;8.32;2.30;;;;;;;4.88;74.63;99082.47;2617776;54;20533;-67
2022/02/22 02:28:45;;;;;;;7.90;2.95;;;;;;;4.90;74.58;99071.88;2618363;54;20030;-66
2022/02/22 02:31:15;;;;;;;12.50;2.65;;;;;;;4.92;74.44;99075.16;2618337;54;20045;-66
2022/02/22 02:33:49;;;;;;;9.80;2.22;;;;;;;4.92;74.71;99075.16;2618059;54;20644;-66
2022/02/22 02:36:19;;;;;;;13.68;3.30;;;;;;;4.93;74.77;99076.78;2618302;54;20556;-66
2022/02/22 02:38:51;;;;;;;9.95;2.55;;;;;;;4.93;74.64;99084.66;2618462;39;20421;-65
2022/02/22 02:41:21;;;;;;;9.38;2.35;;;;;;;4.98;74.73;99087.66;2618679;54;20065;-66
2022/02/22 02:43:51;;;;;;;9.38;3.08;;;;;;;4.96;74.63;99086.97;2617499;47;20035;-66
2022/02/22 02:46:20;;;;;;;10.00;3.53;;;;;;;4.99;74.54;99089.31;2618583;39;20444;-68
2022/02/22 02:48:50;;;;;;;9.20;2.78;;;;;;;5.01;74.88;99094.38;2619932;54;20018;-66
2022/02/22 02:51:20;;;;;;;8.65;2.45;;;;;;;4.99;74.89;99089.31;2625145;47;20039;-66
2022/02/22 02:53:53;;;;;;;11.98;3.25;;;;;;;5.03;74.42;99097.69;2618201;54;20038;-66
2022/02/22 02:56:24;;;;;;;8.18;2.42;;;;;;;4.98;74.51;99090.28;2618200;54;20545;-66
2022/02/22 02:58:56;;;;;;;11.50;3.28;;;;;;;4.99;74.68;99091.94;2620602;54;20035;-66
2022/02/22 03:01:27;;;;;;;10.63;2.70;;;;;;;5.04;74.49;99096.72;2625111;54;20038;-66
2022/02/22 03:03:57;;;;;;;8.35;2.72;;;;;;;4.99;74.64;99104.22;2624698;54;20027;-67
2022/02/22 03:06:26;;;;;;;7.88;2.53;;;;;;;4.99;74.91;99112.88;2618812;54;20029;-66
2022/02/22 03:08:59;;;;;;;8.95;2.35;;;;;;;4.93;74.90;99123.94;2618016;54;20070;-66
2022/02/22 03:11:29;;;;;;;9.38;2.67;;;;;;;4.94;75.00;99123.00;2618034;54;20057;-66
2022/02/22 03:13:59;;;;;;;13.98;3.33;;;;;;;4.88;75.28;99121.78;2617372;51;20081;-66
2022/02/22 03:16:28;;;;;;;7.57;2.85;;;;;;;4.84;75.08;99130.91;2618136;54;20538;-66
2022/02/22 03:18:58;;;;;;;9.65;3.10;;;;;;;4.84;75.34;99138.75;2617237;47;20620;-67
2022/02/22 03:21:27;;;;;;;11.35;3.00;;;;;;;4.85;75.19;99142.19;2618044;54;20050;-66
2022/02/22 03:24:01;;;;;;;8.10;2.80;;;;;;;4.89;75.60;99138.31;2617172;54;20534;-66
2022/02/22 03:26:31;;;;;;;6.82;2.53;;;;;;;4.90;74.77;99158.31;2618016;54;20545;-67
2022/02/22 03:29:01;;;;;;;6.53;2.90;;;;;;;4.91;75.33;99155.53;2617856;54;20033;-66
2022/02/22 03:31:31;;;;;;;9.18;3.03;;;;;;;4.94;74.69;99155.25;2618016;54;20089;-67
2022/02/22 03:34:01;;;;;;;13.18;3.38;;;;;;;4.94;74.71;99159.69;2617623;54;20038;-66
2022/02/22 03:36:31;;;;;;;8.65;2.60;;;;;;;4.96;74.62;99155.91;2617905;54;20035;-66
2022/02/22 03:39:04;;;;;;;10.40;2.78;;;;;;;4.95;73.66;99158.69;2617951;54;20550;-67
2022/02/22 03:41:33;;;;;;;8.95;2.45;;;;;;;4.97;73.63;99159.38;2617947;54;20050;-66
2022/02/22 03:44:03;;;;;;;11.27;2.67;;;;;;;5.00;72.71;99163.50;2617877;54;20073;-67
2022/02/22 03:46:32;;;;;;;13.00;2.83;;;;;;;5.04;72.22;99170.09;2617834;54;20041;-67
2022/02/22 03:49:02;;;;;;;14.07;3.13;;;;;;;5.10;71.94;99178.19;2618386;39;20407;-67
2022/02/22 03:51:32;;;;;;;12.05;2.50;;;;;;;5.15;71.93;99173.31;2618083;54;20030;-65
2022/02/22 03:54:04;;;;;;;14.35;2.72;;;;;;;5.18;71.66;99180.91;2617907;54;20034;-66
2022/02/22 03:56:34;;;;;;;10.52;3.00;;;;;;;5.15;71.61;99175.94;2617976;54;20035;-66
2022/02/22 03:59:03;;;;;;;8.68;2.45;;;;;;;5.07;70.77;99181.09;2618343;54;20089;-66
2022/02/22 04:01:33;;;;;;;12.98;2.55;;;;;;;5.02;70.07;99187.72;2618460;39;20406;-66
2022/02/22 04:04:03;;;;;;;7.65;2.38;;;;;;;4.99;69.64;99195.91;2618212;39;20458;-67
2022/02/22 04:06:32;;;;;;;16.35;2.88;;;;;;;4.98;69.52;99197.72;2617946;54;20015;-66
2022/02/22 04:09:06;;;;;;;13.55;2.75;;;;;;;4.93;70.15;99194.69;2617345;46;20034;-66
2022/02/22 04:11:35;;;;;;;8.13;2.47;;;;;;;4.87;70.86;99201.34;2617806;39;20477;-66
2022/02/22 04:14:05;;;;;;;10.45;2.47;;;;;;;4.79;71.68;99213.53;2617180;47;20027;-66
2022/02/22 04:16:35;;;;;;;9.00;2.95;;;;;;;4.71;72.72;99209.84;2618001;54;20031;-66
2022/02/22 04:19:04;;;;;;;8.68;3.58;;;;;;;4.66;73.02;99214.69;2618103;54;20085;-65
2022/02/22 04:21:34;;;;;;;7.38;3.22;;;;;;;4.65;73.63;99215.66;2618509;54;20038;-65
2022/02/22 04:24:07;;;;;;;7.72;2.95;;;;;;;4.63;73.51;99214.16;2618295;54;20038;-65
2022/02/22 04:26:36;;;;;;;11.57;2.92;;;;;;;4.63;73.59;99214.16;2618052;54;20041;-65
2022/02/22 04:29:06;;;;;;;7.38;3.38;;;;;;;4.62;73.63;99215.13;2619805;31;20537;-65
2022/02/22 04:31:38;;;;;;;8.30;2.60;;;;;;;4.62;74.06;99218.56;2618839;54;20845;-65
2022/02/22 04:34:11;;;;;;;9.52;3.17;;;;;;;4.51;74.14;99221.34;2617696;47;20018;-66
2022/02/22 04:36:40;;;;;;;9.52;3.42;;;;;;;4.51;74.19;99231.00;2618516;39;20438;-66
2022/02/22 04:39:13;;;;;;;9.00;3.28;;;;;;;4.47;74.87;99228.66;2617790;54;20035;-67
2022/02/22 04:41:43;;;;;;;9.82;3.28;;;;;;;4.42;74.70;99232.69;2617674;54;20070;-67
2022/02/22 04:44:12;;;;;;;8.70;2.80;;;;;;;4.41;74.55;99241.53;2617457;54;20034;-70
2022/02/22 04:46:42;;;;;;;13.50;3.00;;;;;;;4.38;74.69;99233.94;2617670;54;20073;-65
2022/02/22 04:49:12;;;;;;;10.95;3.67;;;;;;;4.29;75.23;99237.44;2622093;54;20553;-68
2022/02/22 04:51:44;;;;;;;9.10;3.78;;;;;;;4.30;75.03;99250.38;2623987;47;20039;-66
2022/02/22 04:54:16;;;;;;;10.45;3.67;;;;;;;4.29;74.93;99253.94;2621611;54;20041;-66
2022/02/22 04:56:45;;;;;;;11.75;3.38;;;;;;;4.25;74.86;99260.44;2617647;54;20597;-65
2022/02/22 04:59:15;;;;;;;8.60;3.28;;;;;;;4.25;74.74;99267.47;2617666;54;20077;-69
2022/02/22 05:01:44;;;;;;;6.95;2.90;;;;;;;4.23;74.57;99278.06;2618163;39;20394;-64
2022/02/22 05:04:14;;;;;;;14.77;3.90;;;;;;;4.24;74.79;99279.69;2617080;47;20026;-65
2022/02/22 05:06:44;;;;;;;11.50;2.70;;;;;;;4.28;74.42;99288.91;2617644;54;20057;-64
2022/02/22 05:09:16;;;;;;;7.60;2.72;;;;;;;4.28;74.13;99283.69;2620888;54;20081;-66
2022/02/22 05:11:45;;;;;;;12.00;4.53;;;;;;;4.26;74.02;99284.81;2622288;39;20419;-67
2022/02/22 05:14:15;;;;;;;10.73;3.00;;;;;;;4.23;74.27;99281.50;2617181;54;20030;-64
2022/02/22 05:16:45;;;;;;;8.02;3.35;;;;;;;4.21;74.22;99277.38;2620339;54;20030;-61
2022/02/22 05:19:14;;;;;;;8.40;3.15;;;;;;;4.20;74.24;99278.31;2623204;39;20426;-62
2022/02/22 05:21:44;;;;;;;8.82;3.75;;;;;;;4.14;74.37;99276.28;2622642;54;20034;-63
2022/02/22 05:24:17;;;;;;;11.43;3.10;;;;;;;4.15;74.64;99285.78;2622305;54;20115;-64
2022/02/22 05:26:53;;;;;;;9.23;3.00;;;;;;;4.12;74.89;99279.06;2623187;54;20045;-63
2022/02/22 05:29:23;;;;;;;8.68;4.30;;;;;;;4.11;75.32;99269.53;2623087;54;20050;-62
2022/02/22 05:31:53;;;;;;;11.60;3.95;;;;;;;4.13;75.07;99270.22;2621987;54;20034;-65
2022/02/22 05:34:23;;;;;;;8.68;3.60;;;;;;;4.14;75.30;99273.66;2621156;54;20031;-62
2022/02/22 05:36:52;;;;;;;11.02;4.20;;;;;;;4.13;75.50;99280.69;2621220;54;20034;-64
2022/02/22 05:39:25;;;;;;;10.98;4.13;;;;;;;4.13;75.60;99285.09;2623454;54;20038;-62
2022/02/22 05:41:54;;;;;;;10.20;4.00;;;;;;;4.14;75.97;99284.13;2623106;54;20046;-63
2022/02/22 05:44:24;;;;;;;9.40;4.45;;;;;;;4.10;75.99;99291.44;2622076;54;20023;-62
2022/02/22 05:46:54;;;;;;;10.25;3.78;;;;;;;4.13;75.81;99301.63;2622624;54;20026;-63
2022/02/22 05:49:25;;;;;;;10.82;4.90;;;;;;;4.12;76.05;99299.13;2622539;54;20528;-62
2022/02/22 05:51:56;;;;;;;13.63;3.80;;;;;;;4.10;76.06;99293.22;2622477;54;20042;-64
2022/02/22 05:54:28;;;;;;;13.68;4.05;;;;;;;4.08;75.85;99300.38;2622301;54;20031;-62
2022/02/22 05:56:58;;;;;;;10.45;3.78;;;;;;;4.07;76.15;99296.13;2623476;54;20041;-62
2022/02/22 05:59:28;;;;;;;11.05;3.67;;;;;;;4.05;76.24;99300.69;2623463;54;20038;-63
2022/02/22 06:01:57;;;;;;;12.40;4.03;;;;;;;4.05;75.94;99311.97;2623391;54;20038;-62
2022/02/22 06:04:27;;;;;;;12.05;3.95;;;;;;;4.05;75.95;99319.00;2624020;39;20418;-65
2022/02/22 06:06:57;;;;;;;12.88;3.53;;;;;;;4.02;76.03;99314.03;2622275;39;20453;-62
2022/02/22 06:09:29;;;;;;;12.40;3.50;;;;;;;3.98;75.99;99318.72;2621560;47;20538;-62
2022/02/22 06:11:58;;;;;;;14.52;3.42;;;;;;;3.96;75.81;99324.09;2621800;54;20026;-62
2022/02/22 06:14:28;;;;;;;11.65;3.70;;;;;;;3.95;76.12;99325.03;2622446;39;20430;-62
2022/02/22 06:16:58;;;;;;;19.02;3.95;;;;;;;3.92;75.86;99314.03;2621024;47;20558;-63
2022/02/22 06:19:28;;;;;;;17.02;4.10;;;;;;;3.88;76.30;99333.59;2622174;47;20556;-62
2022/02/22 06:21:58;;;;;;;8.60;3.40;;;;;;;3.90;76.62;99347.34;2622558;47;20040;-65
2022/02/22 06:24:30;;;;;;;14.50;4.28;;;;;;;3.89;76.21;99341.28;2623414;54;20538;-62
2022/02/22 06:27:00;;;;;;;13.10;4.18;;;;;;;3.92;76.58;99355.88;2623929;54;20037;-62
2022/02/22 06:29:29;;;;;;;13.80;4.60;;;;;;;3.95;76.48;99348.56;2623359;54;20530;-62
2022/02/22 06:31:59;;;;;;;9.90;3.53;;;;;;;3.92;76.60;99354.09;2623510;39;20403;-62
2022/02/22 06:34:29;;;;;;;11.73;4.30;;;;;;;3.91;76.54;99364.69;2622977;54;20023;-66
2022/02/22 06:36:59;;;;;;;13.00;4.57;;;;;;;3.90;76.70;99366.47;2622992;54;20027;-62
2022/02/22 06:39:31;;;;;;;11.52;4.20;;;;;;;3.91;77.34;99375.97;2622704;54;20038;-62
2022/02/22 06:42:01;;;;;;;15.70;5.03;;;;;;;3.94;77.31;99387.97;2623979;54;20036;-63
2022/02/22 06:44:31;;;;;;;17.52;4.68;;;;;;;3.98;77.57;99379.69;2624545;39;20449;-63
2022/02/22 06:47:00;;;;;;;14.63;5.43;;;;;;;4.00;77.46;99383.97;2624485;54;20045;-65
2022/02/22 06:49:30;;;;;;;16.77;6.13;;;;;;;4.02;77.92;99380.25;2623883;54;20030;-62
2022/02/22 06:52:00;;;;;;;17.05;5.82;;;;;;;4.07;77.63;99374.59;2624755;54;20034;-63
2022/02/22 06:54:32;;;;;;;15.65;6.70;;;;;;;4.13;77.72;99381.94;2623493;54;20035;-64
2022/02/22 06:57:01;;;;;;;17.50;7.50;;;;;;;4.15;77.90;99380.81;2623969;54;20026;-61
2022/02/22 06:59:35;;;;;;;20.77;6.55;;;;;;;4.18;77.56;99403.25;2624420;54;20034;-62
2022/02/22 07:02:05;;;;;;;17.58;6.75;;;;;;;4.16;77.95;99403.41;2624293;54;20707;-65
2022/02/22 07:04:35;;;;;;;16.98;6.32;;;;;;;4.22;77.81;99399.41;2623936;54;20038;-63
2022/02/22 07:07:06;;;;;;;15.18;5.88;;;;;;;4.26;77.58;99406.03;2624473;54;20035;-62
2022/02/22 07:09:36;;;;;;;17.70;5.78;;;;;;;4.33;77.68;99415.00;2624408;54;20037;-62
2022/02/22 07:12:07;;;;;;;14.70;5.50;;;;;;;4.37;77.60;99412.91;2624044;54;20042;-64
2022/02/22 07:14:39;;;;;;;16.30;5.93;;;;;;;4.38;77.71;99431.09;2623603;51;20053;-63
2022/02/22 07:17:13;;;;;;;16.75;5.90;;;;;;;4.36;77.72;99430.38;2624259;39;20461;-62
2022/02/22 07:19:43;;;;;;;15.75;6.07;;;;;;;4.33;77.87;99437.72;2624562;47;20027;-62
2022/02/22 07:22:13;;;;;;;16.20;5.70;;;;;;;4.33;78.04;99433.31;2623198;54;20038;-62
2022/02/22 07:24:43;;;;;;;14.57;6.05;;;;;;;4.38;77.97;99444.19;2623720;54;20053;-63
2022/02/22 07:27:12;;;;;;;19.65;6.70;;;;;;;4.39;77.84;99443.22;2624571;39;20441;-63
2022/02/22 07:29:45;;;;;;;14.32;5.97;;;;;;;4.40;77.88;99444.88;2624076;54;20129;-63
2022/02/22 07:32:15;;;;;;;15.57;6.72;;;;;;;4.44;78.20;99442.81;2623486;54;20034;-64
2022/02/22 07:34:45;;;;;;;18.27;6.28;;;;;;;4.51;78.24;99449.16;2623440;54;20118;-62
2022/02/22 07:37:15;;;;;;;19.52;6.50;;;;;;;4.49;77.77;99461.56;2621714;47;20022;-62
2022/02/22 07:39:44;;;;;;;16.58;6.00;;;;;;;4.52;78.15;99463.88;2620922;54;20054;-63
2022/02/22 07:42:14;;;;;;;16.90;5.55;;;;;;;4.57;78.33;99456.47;2620275;47;20046;-64
2022/02/22 07:44:47;;;;;;;13.73;6.32;;;;;;;4.64;78.12;99470.63;2621479;39;20442;-62
2022/02/22 07:47:17;;;;;;;15.13;5.85;;;;;;;4.71;77.94;99470.91;2621252;39;20459;-63
2022/02/22 07:49:47;;;;;;;11.45;4.95;;;;;;;4.80;77.45;99469.25;2621490;54;20041;-64
2022/02/22 07:52:26;;;;;;;14.68;5.88;;;;;;;4.83;77.75;99480.28;2622197;46;20038;-62
2022/02/22 07:54:55;;;;;;;14.85;5.75;;;;;;;4.87;78.01;99478.22;2623613;54;20030;-62
2022/02/22 07:57:26;;;;;;;13.57;5.32;;;;;;;4.90;77.40;99478.78;2623858;54;20040;-64
2022/02/22 07:59:58;;;;;;;15.23;5.90;;;;;;;4.93;77.34;99483.72;2624061;54;20023;-62
2022/02/22 08:02:28;;;;;;;14.07;6.53;;;;;;;4.98;77.54;99485.94;2623239;54;20085;-63
2022/02/22 08:04:58;;;;;;;14.68;5.80;;;;;;;4.97;77.73;99487.69;2623211;54;20026;-63
2022/02/22 08:07:27;;;;;;;16.10;5.35;;;;;;;5.03;77.40;99503.84;2623385;54;20038;-63
2022/02/22 08:09:57;;;;;;;16.90;5.43;;;;;;;5.14;77.31;99503.69;2623755;54;20034;-68
2022/02/22 08:12:27;;;;;;;15.57;5.35;;;;;;;5.17;77.14;99501.59;2623733;54;20039;-62
2022/02/22 08:14:59;;;;;;;15.82;5.07;;;;;;;5.33;77.02;99503.66;2622560;46;20065;-63
2022/02/22 08:17:29;;;;;;;18.08;4.82;;;;;;;5.34;77.16;99505.28;2623198;54;20037;-61
2022/02/22 08:19:59;;;;;;;13.68;4.53;;;;;;;5.44;77.09;99498.25;2623636;46;20081;-62
2022/02/22 08:22:29;;;;;;;12.35;4.72;;;;;;;5.57;76.31;99497.91;2624050;54;20027;-61
2022/02/22 08:24:59;;;;;;;13.32;4.90;;;;;;;5.67;76.08;99495.25;2622824;54;20049;-61
2022/02/22 08:27:29;;;;;;;16.33;5.68;;;;;;;5.72;76.12;99508.78;2622572;54;20037;-61
2022/02/22 08:30:01;;;;;;;13.70;4.57;;;;;;;5.89;75.79;99501.94;2622927;54;20026;-61
2022/02/22 08:32:31;;;;;;;12.77;4.93;;;;;;;5.97;75.27;99504.69;2622482;54;20023;-69
2022/02/22 08:35:01;;;;;;;13.45;4.60;;;;;;;6.12;75.25;99499.75;2623152;54;20518;-61
2022/02/22 08:37:31;;;;;;;12.25;3.97;;;;;;;6.19;74.41;99499.03;2623409;54;20592;-62
2022/02/22 08:40:01;;;;;;;16.05;5.07;;;;;;;6.25;74.84;99489.75;2621926;47;20054;-61
2022/02/22 08:42:32;;;;;;;11.25;4.55;;;;;;;6.37;74.53;99491.19;2622697;47;20023;-61
2022/02/22 08:45:24;;;;;;;12.63;4.60;;;;;;;6.66;73.77;99500.66;2623120;39;20437;-61
2022/02/22 08:47:54;;;;;;;15.48;4.97;;;;;;;6.77;73.19;99489.06;2622374;51;20022;-62
2022/02/22 08:50:25;;;;;;;21.48;5.20;;;;;;;6.78;72.83;99494.19;2623329;54;20089;-64
2022/02/22 08:52:55;;;;;;;15.70;5.45;;;;;;;6.78;72.88;99482.88;2623663;54;20041;-62
2022/02/22 08:55:25;;;;;;;14.10;5.10;;;;;;;6.85;72.50;99481.25;2623136;39;20430;-64
2022/02/22 08:57:56;;;;;;;13.25;4.53;;;;;;;6.92;72.80;99477.06;2622357;47;20537;-62
2022/02/22 09:00:31;;;;;;;16.88;5.05;;;;;;;6.96;72.16;99483.66;2622111;54;20034;-61
2022/02/22 09:03:01;;;;;;;17.50;4.50;;;;;;;6.90;72.24;99479.84;2621807;54;20570;-64
2022/02/22 09:05:32;;;;;;;11.43;3.67;;;;;;;6.89;72.13;99485.25;2623155;54;20102;-62
2022/02/22 09:08:02;;;;;;;18.48;5.93;;;;;;;6.90;71.97;99481.66;2622605;54;20023;-62
2022/02/22 09:10:32;;;;;;;17.10;5.75;;;;;;;6.92;71.85;99477.88;2621852;47;20027;-62
2022/02/22 09:13:02;;;;;;;14.55;4.57;;;;;;;6.90;71.59;99476.41;2623047;54;20031;-62
2022/02/22 09:15:36;;;;;;;12.82;5.43;;;;;;;6.93;71.58;99482.16;2622175;54;20158;-64
2022/02/22 09:18:08;;;;;;;14.57;5.30;;;;;;;6.91;71.45;99475.41;2623010;54;20038;-64
2022/02/22 09:20:38;;;;;;;19.27;5.45;;;;;;;6.90;71.53;99474.59;2622987;54;20127;-63
2022/02/22 09:23:10;;;;;;;17.90;5.13;;;;;;;6.93;71.50;99481.31;2622831;54;20030;-61
2022/02/22 09:25:40;;;;;;;14.65;5.20;;;;;;;6.97;71.99;99472.16;2622832;54;20034;-61
2022/02/22 09:28:12;;;;;;;20.90;5.25;;;;;;;6.98;71.45;99480.88;2622757;54;20033;-62
2022/02/22 09:30:44;;;;;;;17.95;5.57;;;;;;;7.01;71.41;99465.63;2623576;54;20066;-63
2022/02/22 09:33:14;;;;;;;17.98;5.78;;;;;;;7.02;71.57;99466.44;2622615;54;20037;-61
2022/02/22 09:35:46;;;;;;;12.18;5.63;;;;;;;7.07;71.29;99466.81;2622343;47;20018;-61
2022/02/22 09:38:16;;;;;;;18.55;5.30;;;;;;;7.07;71.47;99467.66;2623261;54;20041;-64
2022/02/22 09:40:46;;;;;;;19.25;6.45;;;;;;;6.98;70.74;99470.34;2624070;39;20501;-63
2022/02/22 09:43:16;;;;;;;22.48;7.65;;;;;;;6.91;70.89;99468.34;2623111;39;20216;-61
2022/02/22 09:45:50;;;;;;;17.08;6.15;;;;;;;6.92;70.74;99477.88;2623002;54;20053;-61
2022/02/22 09:48:20;;;;;;;18.95;6.90;;;;;;;6.90;70.64;99473.78;2623239;54;20034;-61
2022/02/22 09:50:50;;;;;;;20.25;6.57;;;;;;;6.93;70.85;99468.19;2623407;54;20031;-61
2022/02/22 09:53:19;;;;;;;20.25;8.00;;;;;;;6.97;70.71;99466.06;2622738;54;20090;-62
2022/02/22 09:55:49;;;;;;;25.05;9.07;;;;;;;6.94;71.10;99464.59;2622541;47;20030;-61
2022/02/22 09:58:19;;;;;;;19.92;8.05;;;;;;;6.93;70.74;99455.03;2623299;54;20118;-63
2022/02/22 10:01:00;;;;;;;24.70;8.00;;;;;;;6.95;71.02;99468.88;2620988;39;20422;-62
2022/02/22 10:03:30;;;;;;;21.83;8.43;;;;;;;6.99;70.82;99462.34;2621725;54;20026;-62
2022/02/22 10:06:02;;;;;;;20.70;7.45;;;;;;;7.07;70.46;99470.28;2624048;47;20029;-63
2022/02/22 10:08:39;;;;;;;20.95;7.70;;;;;;;7.06;70.21;99470.41;2622295;54;20038;-65
2022/02/22 10:11:10;;;;;;;12.50;6.50;;;;;;;7.00;70.48;99471.84;2621628;54;20566;-62
2022/02/22 10:13:40;;;;;;;23.65;8.00;;;;;;;6.98;70.66;99478.25;2620831;47;20031;-63
2022/02/22 10:16:15;;;;;;;21.05;7.40;;;;;;;7.05;70.50;99466.97;2622253;54;20046;-63
2022/02/22 10:18:50;;;;;;;23.15;6.90;;;;;;;7.04;70.28;99469.75;2622311;54;20046;-63
2022/02/22 10:21:21;;;;;;;28.08;6.50;;;;;;;7.08;70.41;99452.69;2623720;47;20034;-64
2022/02/22 10:23:51;;;;;;;20.35;6.20;;;;;;;7.12;69.41;99449.59;2622470;54;20035;-63
2022/02/22 10:26:27;;;;;;;24.57;6.50;;;;;;;7.19;70.01;99453.25;2621344;54;20023;-63
2022/02/22 10:28:58;;;;;;;17.67;6.50;;;;;;;7.33;69.69;99445.78;2621548;54;20314;-62
2022/02/22 10:31:35;;;;;;;19.50;6.30;;;;;;;7.41;69.17;99449.28;2621400;54;20029;-63
2022/02/22 10:34:05;;;;;;;23.45;6.82;;;;;;;7.46;69.04;99446.16;2621658;54;20026;-63
2022/02/22 10:36:53;;;;;;;19.60;5.22;;;;;;;7.44;69.05;99453.41;2621332;54;20026;-63
2022/02/22 10:39:23;;;;;;;21.90;4.93;;;;;;;7.37;68.83;99455.00;2623421;54;20098;-62
2022/02/22 10:41:56;;;;;;;17.75;4.40;;;;;;;7.30;69.19;99443.44;2624342;54;20038;-64
2022/02/22 10:44:33;;;;;;;15.77;5.45;;;;;;;7.33;69.24;99453.66;2623159;47;20037;-64
2022/02/22 10:47:18;;;;;;;17.25;4.60;;;;;;;7.39;69.19;99446.00;2624034;54;20789;-64
2022/02/22 10:49:49;;;;;;;;;;;;;;;7.37;69.03;99445.31;2623992;54;20090;-62
2022/02/22 10:52:21;;;;;;;19.55;4.22;;;;;;;7.41;68.74;99441.38;2624107;47;19946;-63
2022/02/22 10:55:00;;;;;;;19.20;4.43;;;;;;;7.48;68.88;99438.97;2624124;54;20042;-62
2022/02/22 10:57:33;;;;;;;18.98;4.82;;;;;;;7.46;68.75;99440.91;2624554;54;20066;-63
2022/02/22 11:00:03;;;;;;;15.70;4.22;;;;;;;7.40;68.48;99431.84;2624578;54;20589;-62
2022/02/22 11:02:36;;;;;;;22.58;5.05;;;;;;;7.44;68.79;99441.06;2624498;54;20050;-63
2022/02/22 11:05:26;;;;;;;22.83;5.70;;;;;;;7.42;68.37;99432.50;2624795;39;20529;-66
2022/02/22 11:07:56;;;;;;;15.52;5.28;;;;;;;7.55;68.61;99428.59;2622566;47;20568;-65
2022/02/22 11:10:30;;;;;;;17.40;4.93;;;;;;;7.61;68.51;99417.47;2623617;54;20045;-65
2022/02/22 11:13:01;;;;;;;17.33;4.43;;;;;;;7.72;68.47;99427.72;2625355;54;20041;-62
2022/02/22 11:15:37;;;;;;;18.88;4.72;;;;;;;7.79;67.78;99428.72;2624466;54;20085;-62
2022/02/22 11:18:21;;;;;;;14.15;4.95;;;;;;;7.89;67.69;99426.78;2623105;54;20030;-61
2022/02/22 11:20:51;;;;;;;26.27;5.90;;;;;;;8.02;67.60;99421.06;2622983;54;20627;-64
2022/02/22 11:23:29;;;;;;;18.50;5.10;;;;;;;7.98;66.95;99414.47;2622874;54;20034;-64
2022/02/22 11:26:14;;;;;;;17.60;5.43;;;;;;;7.96;66.88;99411.19;2621487;54;20030;-62
2022/02/22 11:28:47;;;;;;;19.60;5.03;;;;;;;7.94;66.93;99406.06;2621895;54;20045;-62
2022/02/22 11:31:20;;;;;;;21.42;5.00;;;;;;;7.92;66.54;99404.59;2621820;54;20030;-61
2022/02/22 11:33:53;;;;;;;23.08;5.47;;;;;;;7.87;66.53;99418.19;2621913;54;20026;-64
2022/02/22 11:36:30;;;;;;;18.30;4.97;;;;;;;7.86;66.46;99429.72;2622251;54;20034;-62
2022/02/22 11:39:01;;;;;;;26.75;5.43;;;;;;;7.81;66.35;99429.38;2622142;54;20290;-64
2022/02/22 11:41:41;;;;;;;19.43;4.50;;;;;;;7.86;66.88;99437.63;2622558;54;20086;-62
2022/02/22 11:44:18;;;;;;;22.95;5.85;;;;;;;7.80;67.04;99437.47;2622277;54;20291;-61
2022/02/22 11:46:52;;;;;;;25.08;5.55;;;;;;;7.79;66.64;99430.53;2622543;54;20098;-64
2022/02/22 11:49:28;;;;;;;21.23;5.18;;;;;;;7.88;66.79;99433.03;2622888;54;20030;-61
2022/02/22 11:52:11;;;;;;;23.13;5.82;;;;;;;7.94;66.82;99436.81;2620830;54;20054;-61
2022/02/22 11:54:44;;;;;;;23.52;5.80;;;;;;;8.03;66.55;99433.22;2621779;46;20037;-61